Luis Lopez, New Mexico
Current Conditions -  °F | °C
As of 3:35 PM on Friday 19 Dec 2014 (Local Time) from KONM Reporting Station
Clear Clear  
Wind Chill: 43°   Ceiling: Unl
Heat Index: 47°   Visibility: 10mi
Dew Point: 24°   Wind: 9mph
Humidity: 40%   Direction: 20°NNE
Pressure: 30.16"   Gusts: NA
Location:  33.8946°N, 106.565°W
Report Text: KONM 192235Z AUTO 02008KT 10SM CLR 09/M04 A3016 RMK AO2 T00861045
Loading
Personal Weather Stations






























Interactive Weather Map New forecast layout! Learn more

10-Day Weather Forecast

Advertisements
Track Severe Weather on mobile